sensor_id;sensor_type;location;lat;lon;timestamp;P1;durP1;ratioP1;P2;durP2;ratioP2
68076;SDS011;54866;53.458;14.540;2023-02-15T00:01:34;46.30;;;24.70;;
68076;SDS011;54866;53.458;14.540;2023-02-15T00:04:05;41.20;;;25.10;;
68076;SDS011;54866;53.458;14.540;2023-02-15T00:06:35;43.80;;;23.80;;
68076;SDS011;54866;53.458;14.540;2023-02-15T00:09:04;45.70;;;26.20;;
68076;SDS011;54866;53.458;14.540;2023-02-15T00:11:33;44.00;;;26.70;;
68076;SDS011;54866;53.458;14.540;2023-02-15T00:14:16;50.30;;;27.20;;
68076;SDS011;54866;53.458;14.540;2023-02-15T00:16:48;41.40;;;25.10;;
68076;SDS011;54866;53.458;14.540;2023-02-15T00:19:20;45.30;;;25.20;;
68076;SDS011;54866;53.458;14.540;2023-02-15T00:21:49;43.90;;;25.90;;
68076;SDS011;54866;53.458;14.540;2023-02-15T00:24:19;42.30;;;23.60;;
68076;SDS011;54866;53.458;14.540;2023-02-15T00:26:48;43.10;;;25.50;;
68076;SDS011;54866;53.458;14.540;2023-02-15T00:29:18;45.80;;;26.80;;
68076;SDS011;54866;53.458;14.540;2023-02-15T00:31:48;47.10;;;25.30;;
68076;SDS011;54866;53.458;14.540;2023-02-15T00:34:19;43.30;;;26.20;;
68076;SDS011;54866;53.458;14.540;2023-02-15T00:36:50;44.20;;;26.50;;
68076;SDS011;54866;53.458;14.540;2023-02-15T00:39:20;36.80;;;23.00;;
68076;SDS011;54866;53.458;14.540;2023-02-15T00:41:50;42.60;;;24.20;;
68076;SDS011;54866;53.458;14.540;2023-02-15T00:44:19;45.10;;;26.60;;
68076;SDS011;54866;53.458;14.540;2023-02-15T00:46:48;45.00;;;23.80;;
68076;SDS011;54866;53.458;14.540;2023-02-15T00:49:18;48.70;;;27.20;;
68076;SDS011;54866;53.458;14.540;2023-02-15T00:51:47;47.80;;;26.90;;
68076;SDS011;54866;53.458;14.540;2023-02-15T00:54:16;47.20;;;27.70;;
68076;SDS011;54866;53.458;14.540;2023-02-15T00:56:46;38.60;;;22.40;;
68076;SDS011;54866;53.458;14.540;2023-02-15T00:59:15;48.50;;;26.70;;
68076;SDS011;54866;53.458;14.540;2023-02-15T01:01:44;43.00;;;24.80;;
68076;SDS011;54866;53.458;14.540;2023-02-15T01:04:14;43.40;;;23.80;;
68076;SDS011;54866;53.458;14.540;2023-02-15T01:06:43;39.50;;;23.80;;
68076;SDS011;54866;53.458;14.540;2023-02-15T01:09:12;44.30;;;25.20;;
68076;SDS011;54866;53.458;14.540;2023-02-15T01:11:42;40.20;;;22.80;;
68076;SDS011;54866;53.458;14.540;2023-02-15T01:14:11;42.90;;;24.50;;
68076;SDS011;54866;53.458;14.540;2023-02-15T01:16:41;41.70;;;23.10;;
68076;SDS011;54866;53.458;14.540;2023-02-15T01:19:10;44.20;;;24.30;;
68076;SDS011;54866;53.458;14.540;2023-02-15T01:21:39;57.50;;;27.70;;
68076;SDS011;54866;53.458;14.540;2023-02-15T01:24:11;60.90;;;28.40;;
68076;SDS011;54866;53.458;14.540;2023-02-15T01:26:41;63.50;;;30.60;;
68076;SDS011;54866;53.458;14.540;2023-02-15T01:29:10;65.90;;;29.50;;
68076;SDS011;54866;53.458;14.540;2023-02-15T01:31:39;57.80;;;29.60;;
68076;SDS011;54866;53.458;14.540;2023-02-15T01:34:09;58.10;;;29.80;;
68076;SDS011;54866;53.458;14.540;2023-02-15T01:36:38;58.40;;;28.90;;
68076;SDS011;54866;53.458;14.540;2023-02-15T01:39:07;56.70;;;28.60;;
68076;SDS011;54866;53.458;14.540;2023-02-15T01:41:37;45.70;;;23.40;;
68076;SDS011;54866;53.458;14.540;2023-02-15T01:47:02;35.80;;;19.10;;
68076;SDS011;54866;53.458;14.540;2023-02-15T01:49:32;39.50;;;21.60;;
68076;SDS011;54866;53.458;14.540;2023-02-15T01:52:01;40.20;;;22.60;;
68076;SDS011;54866;53.458;14.540;2023-02-15T01:54:31;37.20;;;20.40;;
68076;SDS011;54866;53.458;14.540;2023-02-15T01:57:03;42.10;;;22.20;;
68076;SDS011;54866;53.458;14.540;2023-02-15T01:59:36;38.90;;;22.00;;
68076;SDS011;54866;53.458;14.540;2023-02-15T02:02:09;38.00;;;22.10;;
68076;SDS011;54866;53.458;14.540;2023-02-15T02:04:45;36.60;;;21.30;;
68076;SDS011;54866;53.458;14.540;2023-02-15T02:07:19;38.10;;;20.70;;
68076;SDS011;54866;53.458;14.540;2023-02-15T02:09:50;35.20;;;20.80;;
68076;SDS011;54866;53.458;14.540;2023-02-15T02:12:19;42.10;;;24.00;;
68076;SDS011;54866;53.458;14.540;2023-02-15T02:14:51;39.30;;;22.60;;
68076;SDS011;54866;53.458;14.540;2023-02-15T02:17:25;37.10;;;22.00;;
68076;SDS011;54866;53.458;14.540;2023-02-15T02:23:12;43.80;;;24.40;;
68076;SDS011;54866;53.458;14.540;2023-02-15T02:26:04;39.10;;;23.50;;
68076;SDS011;54866;53.458;14.540;2023-02-15T02:29:21;42.90;;;23.60;;
68076;SDS011;54866;53.458;14.540;2023-02-15T02:32:12;44.20;;;24.30;;
68076;SDS011;54866;53.458;14.540;2023-02-15T02:35:00;43.20;;;24.60;;
68076;SDS011;54866;53.458;14.540;2023-02-15T02:37:37;43.50;;;24.30;;
68076;SDS011;54866;53.458;14.540;2023-02-15T02:40:15;54.40;;;29.30;;
68076;SDS011;54866;53.458;14.540;2023-02-15T02:42:54;50.80;;;27.00;;
68076;SDS011;54866;53.458;14.540;2023-02-15T02:45:28;49.70;;;28.40;;
68076;SDS011;54866;53.458;14.540;2023-02-15T02:48:05;53.20;;;28.80;;
68076;SDS011;54866;53.458;14.540;2023-02-15T02:50:38;58.90;;;28.70;;
68076;SDS011;54866;53.458;14.540;2023-02-15T02:53:08;48.10;;;26.50;;
68076;SDS011;54866;53.458;14.540;2023-02-15T02:55:39;45.20;;;25.80;;
68076;SDS011;54866;53.458;14.540;2023-02-15T02:58:13;50.40;;;28.30;;
68076;SDS011;54866;53.458;14.540;2023-02-15T03:00:48;45.80;;;26.70;;
68076;SDS011;54866;53.458;14.540;2023-02-15T03:03:21;50.80;;;27.20;;
68076;SDS011;54866;53.458;14.540;2023-02-15T03:05:57;46.80;;;25.90;;
68076;SDS011;54866;53.458;14.540;2023-02-15T03:08:28;50.90;;;28.50;;
68076;SDS011;54866;53.458;14.540;2023-02-15T03:11:01;46.50;;;24.50;;
68076;SDS011;54866;53.458;14.540;2023-02-15T03:13:32;44.20;;;24.60;;
68076;SDS011;54866;53.458;14.540;2023-02-15T03:16:03;47.90;;;25.20;;
68076;SDS011;54866;53.458;14.540;2023-02-15T03:18:53;54.80;;;25.20;;
68076;SDS011;54866;53.458;14.540;2023-02-15T03:21:30;46.10;;;24.90;;
68076;SDS011;54866;53.458;14.540;2023-02-15T03:24:04;46.10;;;26.80;;
68076;SDS011;54866;53.458;14.540;2023-02-15T03:26:38;44.40;;;23.60;;
68076;SDS011;54866;53.458;14.540;2023-02-15T03:29:09;48.80;;;27.50;;
68076;SDS011;54866;53.458;14.540;2023-02-15T03:31:41;41.50;;;23.50;;
68076;SDS011;54866;53.458;14.540;2023-02-15T03:34:13;45.50;;;25.80;;
68076;SDS011;54866;53.458;14.540;2023-02-15T03:36:46;46.80;;;25.50;;
68076;SDS011;54866;53.458;14.540;2023-02-15T03:39:22;44.60;;;25.60;;
68076;SDS011;54866;53.458;14.540;2023-02-15T03:41:57;47.80;;;25.00;;
68076;SDS011;54866;53.458;14.540;2023-02-15T03:44:33;45.20;;;25.10;;
68076;SDS011;54866;53.458;14.540;2023-02-15T03:47:11;44.10;;;23.90;;
68076;SDS011;54866;53.458;14.540;2023-02-15T03:49:45;43.10;;;24.90;;
68076;SDS011;54866;53.458;14.540;2023-02-15T03:52:20;49.60;;;25.30;;
68076;SDS011;54866;53.458;14.540;2023-02-15T03:54:53;44.20;;;24.10;;
68076;SDS011;54866;53.458;14.540;2023-02-15T03:57:23;45.30;;;25.50;;
68076;SDS011;54866;53.458;14.540;2023-02-15T04:00:14;49.80;;;22.80;;
68076;SDS011;54866;53.458;14.540;2023-02-15T04:03:11;40.70;;;25.10;;
68076;SDS011;54866;53.458;14.540;2023-02-15T04:05:49;46.90;;;23.20;;
68076;SDS011;54866;53.458;14.540;2023-02-15T04:08:19;47.30;;;26.70;;
68076;SDS011;54866;53.458;14.540;2023-02-15T04:11:08;50.00;;;26.90;;
68076;SDS011;54866;53.458;14.540;2023-02-15T04:13:37;48.90;;;26.70;;
68076;SDS011;54866;53.458;14.540;2023-02-15T04:16:07;44.50;;;24.30;;
68076;SDS011;54866;53.458;14.540;2023-02-15T04:18:37;46.30;;;26.50;;
68076;SDS011;54866;53.458;14.540;2023-02-15T04:21:26;45.60;;;24.60;;
68076;SDS011;54866;53.458;14.540;2023-02-15T04:24:14;53.30;;;27.60;;
68076;SDS011;54866;53.458;14.540;2023-02-15T04:27:02;45.60;;;25.70;;
68076;SDS011;54866;53.458;14.540;2023-02-15T04:29:33;44.00;;;24.50;;
68076;SDS011;54866;53.458;14.540;2023-02-15T04:32:02;43.70;;;24.80;;
68076;SDS011;54866;53.458;14.540;2023-02-15T04:34:32;47.50;;;26.90;;
68076;SDS011;54866;53.458;14.540;2023-02-15T04:37:02;51.20;;;26.70;;
68076;SDS011;54866;53.458;14.540;2023-02-15T04:39:31;51.80;;;29.00;;
68076;SDS011;54866;53.458;14.540;2023-02-15T04:42:00;53.50;;;29.70;;
68076;SDS011;54866;53.458;14.540;2023-02-15T04:44:30;55.70;;;30.50;;
68076;SDS011;54866;53.458;14.540;2023-02-15T04:46:59;53.30;;;29.50;;
68076;SDS011;54866;53.458;14.540;2023-02-15T04:49:29;53.60;;;28.40;;
68076;SDS011;54866;53.458;14.540;2023-02-15T04:51:58;53.80;;;29.80;;
68076;SDS011;54866;53.458;14.540;2023-02-15T04:54:27;55.20;;;30.20;;
68076;SDS011;54866;53.458;14.540;2023-02-15T04:56:57;52.90;;;28.50;;
68076;SDS011;54866;53.458;14.540;2023-02-15T04:59:26;55.30;;;29.50;;
68076;SDS011;54866;53.458;14.540;2023-02-15T05:01:55;48.20;;;26.00;;
68076;SDS011;54866;53.458;14.540;2023-02-15T05:04:25;54.10;;;27.30;;
68076;SDS011;54866;53.458;14.540;2023-02-15T05:06:54;58.60;;;30.90;;
68076;SDS011;54866;53.458;14.540;2023-02-15T05:09:23;65.20;;;32.90;;
68076;SDS011;54866;53.458;14.540;2023-02-15T05:11:53;54.00;;;30.20;;
68076;SDS011;54866;53.458;14.540;2023-02-15T05:14:22;66.90;;;34.20;;
68076;SDS011;54866;53.458;14.540;2023-02-15T05:16:51;58.10;;;31.90;;
68076;SDS011;54866;53.458;14.540;2023-02-15T05:19:21;60.00;;;33.50;;
68076;SDS011;54866;53.458;14.540;2023-02-15T05:21:50;60.80;;;33.40;;
68076;SDS011;54866;53.458;14.540;2023-02-15T05:24:20;59.40;;;32.80;;
68076;SDS011;54866;53.458;14.540;2023-02-15T05:27:07;54.70;;;30.50;;
68076;SDS011;54866;53.458;14.540;2023-02-15T05:29:55;54.70;;;31.40;;
68076;SDS011;54866;53.458;14.540;2023-02-15T05:32:25;60.80;;;33.10;;
68076;SDS011;54866;53.458;14.540;2023-02-15T05:34:54;63.20;;;31.00;;
68076;SDS011;54866;53.458;14.540;2023-02-15T05:37:23;56.10;;;32.40;;
68076;SDS011;54866;53.458;14.540;2023-02-15T05:39:53;58.70;;;30.60;;
68076;SDS011;54866;53.458;14.540;2023-02-15T05:42:22;57.50;;;30.60;;
68076;SDS011;54866;53.458;14.540;2023-02-15T05:44:51;58.50;;;31.20;;
68076;SDS011;54866;53.458;14.540;2023-02-15T05:47:21;56.40;;;29.10;;
68076;SDS011;54866;53.458;14.540;2023-02-15T05:49:50;57.90;;;31.60;;
68076;SDS011;54866;53.458;14.540;2023-02-15T05:52:19;61.50;;;31.50;;
68076;SDS011;54866;53.458;14.540;2023-02-15T05:54:49;52.20;;;27.40;;
68076;SDS011;54866;53.458;14.540;2023-02-15T05:57:18;56.30;;;30.60;;
68076;SDS011;54866;53.458;14.540;2023-02-15T05:59:47;57.10;;;31.60;;
68076;SDS011;54866;53.458;14.540;2023-02-15T06:02:17;55.20;;;29.70;;
68076;SDS011;54866;53.458;14.540;2023-02-15T06:04:46;52.70;;;28.60;;
68076;SDS011;54866;53.458;14.540;2023-02-15T06:07:15;59.10;;;31.40;;
68076;SDS011;54866;53.458;14.540;2023-02-15T06:09:45;61.70;;;33.80;;
68076;SDS011;54866;53.458;14.540;2023-02-15T06:12:14;63.90;;;35.20;;
68076;SDS011;54866;53.458;14.540;2023-02-15T06:14:43;54.20;;;29.10;;
68076;SDS011;54866;53.458;14.540;2023-02-15T06:17:12;59.10;;;33.60;;
68076;SDS011;54866;53.458;14.540;2023-02-15T06:19:43;60.30;;;32.90;;
68076;SDS011;54866;53.458;14.540;2023-02-15T06:22:12;55.50;;;31.00;;
68076;SDS011;54866;53.458;14.540;2023-02-15T06:24:41;55.30;;;32.00;;
68076;SDS011;54866;53.458;14.540;2023-02-15T06:27:11;54.70;;;32.80;;
68076;SDS011;54866;53.458;14.540;2023-02-15T06:29:40;53.50;;;30.50;;
68076;SDS011;54866;53.458;14.540;2023-02-15T06:32:09;59.20;;;31.00;;
68076;SDS011;54866;53.458;14.540;2023-02-15T06:34:39;55.80;;;30.00;;
68076;SDS011;54866;53.458;14.540;2023-02-15T06:37:08;47.20;;;27.40;;
68076;SDS011;54866;53.458;14.540;2023-02-15T06:39:37;55.20;;;30.10;;
68076;SDS011;54866;53.458;14.540;2023-02-15T06:42:07;47.50;;;25.10;;
68076;SDS011;54866;53.458;14.540;2023-02-15T06:44:36;48.70;;;28.20;;
68076;SDS011;54866;53.458;14.540;2023-02-15T06:47:05;48.40;;;30.80;;
68076;SDS011;54866;53.458;14.540;2023-02-15T06:49:34;51.20;;;29.90;;
68076;SDS011;54866;53.458;14.540;2023-02-15T06:52:04;39.70;;;25.60;;
68076;SDS011;54866;53.458;14.540;2023-02-15T06:54:34;43.20;;;25.70;;
68076;SDS011;54866;53.458;14.540;2023-02-15T06:57:03;37.70;;;24.40;;
68076;SDS011;54866;53.458;14.540;2023-02-15T06:59:32;36.70;;;23.80;;
68076;SDS011;54866;53.458;14.540;2023-02-15T07:02:02;34.10;;;21.40;;
68076;SDS011;54866;53.458;14.540;2023-02-15T07:04:31;34.90;;;22.40;;
68076;SDS011;54866;53.458;14.540;2023-02-15T07:07:01;33.20;;;23.10;;
68076;SDS011;54866;53.458;14.540;2023-02-15T07:09:30;37.80;;;25.40;;
68076;SDS011;54866;53.458;14.540;2023-02-15T07:11:59;36.30;;;23.40;;
68076;SDS011;54866;53.458;14.540;2023-02-15T07:14:46;33.10;;;23.30;;
68076;SDS011;54866;53.458;14.540;2023-02-15T07:17:15;35.20;;;27.90;;
68076;SDS011;54866;53.458;14.540;2023-02-15T07:19:45;30.70;;;24.40;;
68076;SDS011;54866;53.458;14.540;2023-02-15T07:22:14;34.30;;;26.40;;
68076;SDS011;54866;53.458;14.540;2023-02-15T07:24:44;32.50;;;24.00;;
68076;SDS011;54866;53.458;14.540;2023-02-15T07:27:13;31.30;;;25.30;;
68076;SDS011;54866;53.458;14.540;2023-02-15T07:29:43;33.90;;;27.30;;
68076;SDS011;54866;53.458;14.540;2023-02-15T07:32:12;34.10;;;26.00;;
68076;SDS011;54866;53.458;14.540;2023-02-15T07:34:41;30.50;;;26.50;;
68076;SDS011;54866;53.458;14.540;2023-02-15T07:37:11;31.50;;;24.90;;
68076;SDS011;54866;53.458;14.540;2023-02-15T07:39:40;32.40;;;24.90;;
68076;SDS011;54866;53.458;14.540;2023-02-15T07:42:09;34.60;;;27.50;;
68076;SDS011;54866;53.458;14.540;2023-02-15T07:44:39;31.80;;;27.60;;
68076;SDS011;54866;53.458;14.540;2023-02-15T07:47:08;32.70;;;27.40;;
68076;SDS011;54866;53.458;14.540;2023-02-15T07:49:38;31.40;;;28.10;;
68076;SDS011;54866;53.458;14.540;2023-02-15T07:52:07;31.20;;;27.70;;
68076;SDS011;54866;53.458;14.540;2023-02-15T07:54:37;31.40;;;28.10;;
68076;SDS011;54866;53.458;14.540;2023-02-15T07:57:06;28.10;;;25.10;;
68076;SDS011;54866;53.458;14.540;2023-02-15T07:59:35;33.90;;;30.50;;
68076;SDS011;54866;53.458;14.540;2023-02-15T08:02:07;35.50;;;32.00;;
68076;SDS011;54866;53.458;14.540;2023-02-15T08:04:37;33.10;;;29.70;;
68076;SDS011;54866;53.458;14.540;2023-02-15T08:07:07;32.90;;;29.50;;
68076;SDS011;54866;53.458;14.540;2023-02-15T08:09:36;35.80;;;32.50;;
68076;SDS011;54866;53.458;14.540;2023-02-15T08:12:05;36.50;;;32.80;;
68076;SDS011;54866;53.458;14.540;2023-02-15T08:14:35;35.60;;;32.10;;
68076;SDS011;54866;53.458;14.540;2023-02-15T08:17:04;36.10;;;32.60;;
68076;SDS011;54866;53.458;14.540;2023-02-15T08:19:34;33.30;;;30.10;;
68076;SDS011;54866;53.458;14.540;2023-02-15T08:22:04;35.20;;;31.90;;
68076;SDS011;54866;53.458;14.540;2023-02-15T08:24:36;33.80;;;30.60;;
68076;SDS011;54866;53.458;14.540;2023-02-15T08:27:07;33.60;;;30.40;;
68076;SDS011;54866;53.458;14.540;2023-02-15T08:29:38;33.30;;;30.30;;
68076;SDS011;54866;53.458;14.540;2023-02-15T08:32:09;33.90;;;30.90;;
68076;SDS011;54866;53.458;14.540;2023-02-15T08:34:40;32.60;;;29.50;;
68076;SDS011;54866;53.458;14.540;2023-02-15T08:37:10;34.00;;;30.60;;
68076;SDS011;54866;53.458;14.540;2023-02-15T08:39:39;33.10;;;30.10;;
68076;SDS011;54866;53.458;14.540;2023-02-15T08:42:10;34.20;;;31.10;;
68076;SDS011;54866;53.458;14.540;2023-02-15T08:44:40;30.70;;;27.70;;
68076;SDS011;54866;53.458;14.540;2023-02-15T08:47:09;32.70;;;29.50;;
68076;SDS011;54866;53.458;14.540;2023-02-15T08:49:38;34.90;;;31.40;;
68076;SDS011;54866;53.458;14.540;2023-02-15T08:52:08;34.40;;;31.20;;
68076;SDS011;54866;53.458;14.540;2023-02-15T08:54:37;34.50;;;31.20;;
68076;SDS011;54866;53.458;14.540;2023-02-15T08:57:06;35.80;;;32.50;;
68076;SDS011;54866;53.458;14.540;2023-02-15T08:59:36;34.60;;;31.10;;
68076;SDS011;54866;53.458;14.540;2023-02-15T09:02:06;31.30;;;28.30;;
68076;SDS011;54866;53.458;14.540;2023-02-15T09:04:37;35.30;;;32.10;;
68076;SDS011;54866;53.458;14.540;2023-02-15T09:07:06;35.50;;;32.20;;
68076;SDS011;54866;53.458;14.540;2023-02-15T09:09:35;35.30;;;32.00;;
68076;SDS011;54866;53.458;14.540;2023-02-15T09:12:05;34.10;;;30.90;;
68076;SDS011;54866;53.458;14.540;2023-02-15T09:14:34;35.30;;;32.10;;
68076;SDS011;54866;53.458;14.540;2023-02-15T09:17:04;33.20;;;30.00;;
68076;SDS011;54866;53.458;14.540;2023-02-15T09:19:33;35.40;;;31.90;;
68076;SDS011;54866;53.458;14.540;2023-02-15T09:22:03;37.50;;;34.00;;
68076;SDS011;54866;53.458;14.540;2023-02-15T09:24:32;36.90;;;33.40;;
68076;SDS011;54866;53.458;14.540;2023-02-15T09:27:02;36.20;;;32.90;;
68076;SDS011;54866;53.458;14.540;2023-02-15T09:29:31;34.80;;;31.50;;
68076;SDS011;54866;53.458;14.540;2023-02-15T09:32:00;34.30;;;31.00;;
68076;SDS011;54866;53.458;14.540;2023-02-15T09:34:30;36.70;;;33.10;;
68076;SDS011;54866;53.458;14.540;2023-02-15T09:37:00;37.30;;;33.70;;
68076;SDS011;54866;53.458;14.540;2023-02-15T09:39:29;37.20;;;33.60;;
68076;SDS011;54866;53.458;14.540;2023-02-15T09:42:21;38.00;;;34.50;;
68076;SDS011;54866;53.458;14.540;2023-02-15T09:45:19;39.00;;;35.40;;
68076;SDS011;54866;53.458;14.540;2023-02-15T09:48:07;34.30;;;30.90;;
68076;SDS011;54866;53.458;14.540;2023-02-15T09:50:56;33.90;;;30.70;;
68076;SDS011;54866;53.458;14.540;2023-02-15T09:53:46;36.50;;;32.90;;
68076;SDS011;54866;53.458;14.540;2023-02-15T09:56:29;37.60;;;34.00;;
68076;SDS011;54866;53.458;14.540;2023-02-15T09:59:07;36.60;;;33.20;;
68076;SDS011;54866;53.458;14.540;2023-02-15T10:01:49;35.70;;;32.30;;
68076;SDS011;54866;53.458;14.540;2023-02-15T10:04:37;36.70;;;33.20;;
68076;SDS011;54866;53.458;14.540;2023-02-15T10:07:21;35.80;;;32.40;;
68076;SDS011;54866;53.458;14.540;2023-02-15T10:10:11;35.40;;;31.90;;
68076;SDS011;54866;53.458;14.540;2023-02-15T10:12:59;33.20;;;29.90;;
68076;SDS011;54866;53.458;14.540;2023-02-15T10:15:43;35.50;;;32.10;;
68076;SDS011;54866;53.458;14.540;2023-02-15T10:18:29;35.10;;;31.70;;
68076;SDS011;54866;53.458;14.540;2023-02-15T10:21:09;35.70;;;32.20;;
68076;SDS011;54866;53.458;14.540;2023-02-15T10:23:52;36.40;;;32.70;;
68076;SDS011;54866;53.458;14.540;2023-02-15T10:26:38;36.50;;;32.80;;
68076;SDS011;54866;53.458;14.540;2023-02-15T10:29:15;32.50;;;29.30;;
68076;SDS011;54866;53.458;14.540;2023-02-15T10:31:55;35.10;;;31.50;;
68076;SDS011;54866;53.458;14.540;2023-02-15T10:34:32;32.70;;;29.20;;
68076;SDS011;54866;53.458;14.540;2023-02-15T10:37:10;36.30;;;31.90;;
68076;SDS011;54866;53.458;14.540;2023-02-15T10:39:56;35.20;;;31.40;;
68076;SDS011;54866;53.458;14.540;2023-02-15T10:42:38;35.20;;;31.10;;
68076;SDS011;54866;53.458;14.540;2023-02-15T10:45:20;40.90;;;32.50;;
68076;SDS011;54866;53.458;14.540;2023-02-15T10:48:04;36.30;;;31.70;;
68076;SDS011;54866;53.458;14.540;2023-02-15T10:50:48;35.20;;;30.30;;
68076;SDS011;54866;53.458;14.540;2023-02-15T10:53:26;33.30;;;29.80;;
68076;SDS011;54866;53.458;14.540;2023-02-15T10:56:15;32.20;;;28.70;;
68076;SDS011;54866;53.458;14.540;2023-02-15T10:59:01;36.40;;;32.40;;
68076;SDS011;54866;53.458;14.540;2023-02-15T11:01:43;33.80;;;28.80;;
68076;SDS011;54866;53.458;14.540;2023-02-15T11:04:29;31.50;;;28.20;;
68076;SDS011;54866;53.458;14.540;2023-02-15T11:07:08;35.50;;;31.70;;
68076;SDS011;54866;53.458;14.540;2023-02-15T11:09:44;34.70;;;30.80;;
68076;SDS011;54866;53.458;14.540;2023-02-15T11:12:17;33.50;;;29.90;;
68076;SDS011;54866;53.458;14.540;2023-02-15T11:14:51;34.70;;;30.90;;
68076;SDS011;54866;53.458;14.540;2023-02-15T11:17:25;33.90;;;30.30;;
68076;SDS011;54866;53.458;14.540;2023-02-15T11:20:02;33.80;;;28.60;;
68076;SDS011;54866;53.458;14.540;2023-02-15T11:22:39;33.60;;;30.00;;
68076;SDS011;54866;53.458;14.540;2023-02-15T11:25:14;32.50;;;28.80;;
68076;SDS011;54866;53.458;14.540;2023-02-15T11:27:47;33.90;;;30.20;;
68076;SDS011;54866;53.458;14.540;2023-02-15T11:30:20;32.60;;;28.80;;
68076;SDS011;54866;53.458;14.540;2023-02-15T11:32:52;31.50;;;28.10;;
68076;SDS011;54866;53.458;14.540;2023-02-15T11:35:28;35.10;;;29.70;;
68076;SDS011;54866;53.458;14.540;2023-02-15T11:38:05;31.40;;;28.20;;
68076;SDS011;54866;53.458;14.540;2023-02-15T11:40:43;33.30;;;29.20;;
68076;SDS011;54866;53.458;14.540;2023-02-15T11:43:16;35.90;;;28.90;;
68076;SDS011;54866;53.458;14.540;2023-02-15T11:45:51;37.10;;;29.90;;
68076;SDS011;54866;53.458;14.540;2023-02-15T11:48:21;31.40;;;27.30;;
68076;SDS011;54866;53.458;14.540;2023-02-15T11:50:50;34.60;;;29.80;;
68076;SDS011;54866;53.458;14.540;2023-02-15T11:53:20;36.10;;;31.40;;
68076;SDS011;54866;53.458;14.540;2023-02-15T11:55:53;35.50;;;30.30;;
68076;SDS011;54866;53.458;14.540;2023-02-15T11:58:25;31.80;;;26.10;;
68076;SDS011;54866;53.458;14.540;2023-02-15T12:01:02;30.50;;;24.90;;
68076;SDS011;54866;53.458;14.540;2023-02-15T12:03:42;36.10;;;28.90;;
68076;SDS011;54866;53.458;14.540;2023-02-15T12:06:16;30.90;;;26.80;;
68076;SDS011;54866;53.458;14.540;2023-02-15T12:08:52;30.80;;;26.50;;
68076;SDS011;54866;53.458;14.540;2023-02-15T12:11:29;30.20;;;25.20;;
68076;SDS011;54866;53.458;14.540;2023-02-15T12:14:04;32.40;;;27.00;;
68076;SDS011;54866;53.458;14.540;2023-02-15T12:16:39;33.00;;;27.10;;
68076;SDS011;54866;53.458;14.540;2023-02-15T12:19:20;29.10;;;24.90;;
68076;SDS011;54866;53.458;14.540;2023-02-15T12:21:58;29.80;;;25.00;;
68076;SDS011;54866;53.458;14.540;2023-02-15T12:24:30;31.10;;;24.60;;
68076;SDS011;54866;53.458;14.540;2023-02-15T12:27:04;30.80;;;27.10;;
68076;SDS011;54866;53.458;14.540;2023-02-15T12:29:42;30.90;;;25.60;;
68076;SDS011;54866;53.458;14.540;2023-02-15T12:32:17;31.60;;;24.90;;
68076;SDS011;54866;53.458;14.540;2023-02-15T12:34:51;28.80;;;24.80;;
68076;SDS011;54866;53.458;14.540;2023-02-15T12:37:29;31.90;;;26.10;;
68076;SDS011;54866;53.458;14.540;2023-02-15T12:40:02;29.70;;;24.90;;
68076;SDS011;54866;53.458;14.540;2023-02-15T12:42:46;30.30;;;23.60;;
68076;SDS011;54866;53.458;14.540;2023-02-15T12:45:22;29.80;;;23.90;;
68076;SDS011;54866;53.458;14.540;2023-02-15T12:48:13;30.40;;;24.60;;
68076;SDS011;54866;53.458;14.540;2023-02-15T12:50:44;30.20;;;23.70;;
68076;SDS011;54866;53.458;14.540;2023-02-15T12:53:16;29.60;;;24.40;;
68076;SDS011;54866;53.458;14.540;2023-02-15T12:55:51;31.00;;;25.30;;
68076;SDS011;54866;53.458;14.540;2023-02-15T12:58:23;31.20;;;24.30;;
68076;SDS011;54866;53.458;14.540;2023-02-15T13:01:04;29.30;;;24.20;;
68076;SDS011;54866;53.458;14.540;2023-02-15T13:03:52;28.40;;;23.00;;
68076;SDS011;54866;53.458;14.540;2023-02-15T13:06:25;32.30;;;24.40;;
68076;SDS011;54866;53.458;14.540;2023-02-15T13:08:57;30.50;;;24.60;;
68076;SDS011;54866;53.458;14.540;2023-02-15T13:11:33;29.10;;;23.90;;
68076;SDS011;54866;53.458;14.540;2023-02-15T13:14:13;29.00;;;23.00;;
68076;SDS011;54866;53.458;14.540;2023-02-15T13:16:47;31.80;;;22.80;;
68076;SDS011;54866;53.458;14.540;2023-02-15T13:19:19;33.50;;;26.00;;
68076;SDS011;54866;53.458;14.540;2023-02-15T13:21:56;32.40;;;23.30;;
68076;SDS011;54866;53.458;14.540;2023-02-15T13:24:29;30.30;;;23.40;;
68076;SDS011;54866;53.458;14.540;2023-02-15T13:27:04;32.10;;;25.00;;
68076;SDS011;54866;53.458;14.540;2023-02-15T13:29:38;34.90;;;24.30;;
68076;SDS011;54866;53.458;14.540;2023-02-15T13:32:12;37.00;;;25.30;;
68076;SDS011;54866;53.458;14.540;2023-02-15T13:34:50;35.80;;;24.80;;
68076;SDS011;54866;53.458;14.540;2023-02-15T13:37:26;35.80;;;26.30;;
68076;SDS011;54866;53.458;14.540;2023-02-15T13:40:10;36.00;;;24.60;;
68076;SDS011;54866;53.458;14.540;2023-02-15T13:42:44;37.40;;;25.80;;
68076;SDS011;54866;53.458;14.540;2023-02-15T13:48:22;36.40;;;25.50;;
68076;SDS011;54866;53.458;14.540;2023-02-15T13:51:03;35.50;;;24.70;;
68076;SDS011;54866;53.458;14.540;2023-02-15T13:53:45;33.80;;;22.30;;
68076;SDS011;54866;53.458;14.540;2023-02-15T13:56:30;37.70;;;24.60;;
68076;SDS011;54866;53.458;14.540;2023-02-15T13:59:11;34.80;;;24.40;;
68076;SDS011;54866;53.458;14.540;2023-02-15T14:02:27;39.80;;;23.90;;
68076;SDS011;54866;53.458;14.540;2023-02-15T14:07:56;37.40;;;24.00;;
68076;SDS011;54866;53.458;14.540;2023-02-15T14:10:39;40.40;;;24.80;;
68076;SDS011;54866;53.458;14.540;2023-02-15T14:13:29;38.80;;;25.50;;
68076;SDS011;54866;53.458;14.540;2023-02-15T14:16:13;36.80;;;24.20;;
68076;SDS011;54866;53.458;14.540;2023-02-15T14:18:49;40.30;;;25.40;;
68076;SDS011;54866;53.458;14.540;2023-02-15T14:21:24;36.30;;;24.90;;
68076;SDS011;54866;53.458;14.540;2023-02-15T14:24:01;40.10;;;23.40;;
68076;SDS011;54866;53.458;14.540;2023-02-15T14:26:45;35.80;;;23.80;;
68076;SDS011;54866;53.458;14.540;2023-02-15T14:29:23;35.80;;;23.40;;
68076;SDS011;54866;53.458;14.540;2023-02-15T14:32:05;38.30;;;26.10;;
68076;SDS011;54866;53.458;14.540;2023-02-15T14:34:41;39.90;;;26.80;;
68076;SDS011;54866;53.458;14.540;2023-02-15T14:37:16;33.10;;;22.40;;
68076;SDS011;54866;53.458;14.540;2023-02-15T14:39:55;37.90;;;24.30;;
68076;SDS011;54866;53.458;14.540;2023-02-15T14:42:48;37.90;;;24.70;;
68076;SDS011;54866;53.458;14.540;2023-02-15T14:45:25;36.80;;;24.50;;
68076;SDS011;54866;53.458;14.540;2023-02-15T14:48:10;36.20;;;23.70;;
68076;SDS011;54866;53.458;14.540;2023-02-15T14:50:46;42.50;;;26.10;;
68076;SDS011;54866;53.458;14.540;2023-02-15T14:53:16;38.30;;;26.70;;
68076;SDS011;54866;53.458;14.540;2023-02-15T14:59:11;45.00;;;27.20;;
68076;SDS011;54866;53.458;14.540;2023-02-15T15:01:50;41.80;;;27.90;;
68076;SDS011;54866;53.458;14.540;2023-02-15T15:04:25;39.00;;;22.90;;